createdAt,value
2022-11-05T00:02:37.645Z,12.54
2022-11-05T00:05:30.768Z,12.48
2022-11-05T00:08:22.709Z,12.54
2022-11-05T00:10:57.392Z,12.53
2022-11-05T00:13:48.196Z,12.48
2022-11-05T00:16:34.862Z,12.52
2022-11-05T00:19:10.109Z,12.51
2022-11-05T00:22:00.277Z,12.46
2022-11-05T00:24:50.662Z,12.48
2022-11-05T00:27:23.452Z,12.41
2022-11-05T00:29:56.181Z,12.42
2022-11-05T00:32:29.177Z,12.39
2022-11-05T00:35:03.583Z,12.39
2022-11-05T00:37:36.415Z,12.42
2022-11-05T00:40:10.677Z,12.44
2022-11-05T00:43:02.286Z,12.40
2022-11-05T00:45:35.384Z,12.36
2022-11-05T00:48:26.091Z,12.31
2022-11-05T00:51:00.244Z,12.25
2022-11-05T00:53:33.407Z,12.24
2022-11-05T00:56:06.490Z,12.21
2022-11-05T00:58:39.283Z,12.20
2022-11-05T01:01:12.622Z,12.19
2022-11-05T01:03:51.312Z,12.21
2022-11-05T01:06:26.220Z,12.21
2022-11-05T01:08:58.991Z,12.18
2022-11-05T01:11:34.490Z,12.10
2022-11-05T01:14:08.856Z,12.11
2022-11-05T01:16:42.253Z,12.13
2022-11-05T01:19:15.022Z,12.04
2022-11-05T01:21:49.209Z,12.08
2022-11-05T01:24:21.983Z,12.10
2022-11-05T01:26:54.663Z,12.12
2022-11-05T01:29:27.543Z,12.04
2022-11-05T01:32:00.450Z,11.96
2022-11-05T01:34:33.462Z,12.00
2022-11-05T01:37:07.619Z,11.95
2022-11-05T01:39:40.502Z,12.02
2022-11-05T01:42:16.587Z,11.99
2022-11-05T01:45:01.835Z,12.03
2022-11-05T01:47:43.892Z,12.04
2022-11-05T01:50:25.312Z,12.03
2022-11-05T01:53:06.772Z,12.06
2022-11-05T01:55:44.250Z,12.10
2022-11-05T01:58:21.980Z,12.09
2022-11-05T02:00:57.276Z,12.13
2022-11-05T02:03:31.769Z,12.14
2022-11-05T02:06:09.197Z,12.11
2022-11-05T02:08:57.913Z,12.11
2022-11-05T02:11:30.865Z,12.10
2022-11-05T02:14:03.801Z,12.15
2022-11-05T02:16:42.570Z,12.15
2022-11-05T02:19:39.414Z,12.22
2022-11-05T02:22:31.929Z,12.14
2022-11-05T02:25:29.989Z,12.13
2022-11-05T02:28:24.617Z,12.15
2022-11-05T02:31:04.282Z,12.11
2022-11-05T02:33:42.789Z,12.14
2022-11-05T02:36:40.038Z,12.18
2022-11-05T02:39:21.435Z,12.10
2022-11-05T02:42:05.405Z,12.05
2022-11-05T02:44:46.000Z,12.06
2022-11-05T02:47:26.733Z,12.11
2022-11-05T02:50:14.138Z,12.03
2022-11-05T02:52:58.898Z,12.06
2022-11-05T02:55:35.518Z,12.06
2022-11-05T02:58:08.564Z,12.10
2022-11-05T03:00:49.276Z,12.11
2022-11-05T03:03:38.152Z,12.12
2022-11-05T03:06:40.599Z,12.15
2022-11-05T03:09:47.050Z,12.18
2022-11-05T03:12:30.804Z,12.16
2022-11-05T03:15:16.371Z,12.15
2022-11-05T03:18:00.951Z,12.12
2022-11-05T03:20:40.077Z,12.17
2022-11-05T03:23:21.814Z,12.13
2022-11-05T03:25:59.081Z,12.11
2022-11-05T03:28:36.346Z,12.15
2022-11-05T03:31:13.475Z,12.13
2022-11-05T03:33:47.859Z,12.11
2022-11-05T03:36:26.145Z,12.17
2022-11-05T03:39:03.809Z,12.09
2022-11-05T03:41:39.786Z,12.15
2022-11-05T03:44:16.731Z,12.12
2022-11-05T03:46:50.882Z,12.07
2022-11-05T03:49:28.052Z,12.03
2022-11-05T03:52:08.306Z,12.04
2022-11-05T03:54:41.643Z,12.08
2022-11-05T03:57:20.264Z,11.98
2022-11-05T03:59:53.031Z,12.05
2022-11-05T04:02:27.867Z,12.02
2022-11-05T04:05:00.812Z,11.96
2022-11-05T04:07:52.401Z,11.93
2022-11-05T04:10:43.077Z,11.94
2022-11-05T04:13:25.202Z,11.97
2022-11-05T04:16:15.775Z,11.92
2022-11-05T04:18:48.537Z,11.96
2022-11-05T04:21:38.849Z,11.92
2022-11-05T04:24:13.658Z,11.87
2022-11-05T04:26:47.397Z,11.91
2022-11-05T04:29:37.900Z,11.85
2022-11-05T04:32:10.675Z,11.84
2022-11-05T04:34:43.470Z,11.89
2022-11-05T04:37:16.126Z,11.85
2022-11-05T04:39:50.238Z,11.80
2022-11-05T04:42:23.139Z,11.82
2022-11-05T04:44:55.835Z,11.79
2022-11-05T04:47:28.541Z,11.85
2022-11-05T04:50:01.450Z,11.78
2022-11-05T04:52:34.332Z,11.78
2022-11-05T04:55:09.118Z,11.79
2022-11-05T04:57:41.870Z,11.84
2022-11-05T05:00:17.412Z,11.77
2022-11-05T05:02:50.635Z,11.79
2022-11-05T05:05:23.347Z,11.76
2022-11-05T05:07:56.033Z,11.79
2022-11-05T05:10:30.085Z,11.76
2022-11-05T05:13:02.768Z,11.72
2022-11-05T05:15:36.002Z,11.70
2022-11-05T05:18:09.841Z,11.70
2022-11-05T05:21:00.099Z,11.71
2022-11-05T05:23:32.860Z,11.63
2022-11-05T05:26:07.175Z,11.65
2022-11-05T05:28:40.058Z,11.73
2022-11-05T05:31:12.730Z,11.81
2022-11-05T05:33:45.556Z,11.76
2022-11-05T05:36:18.376Z,11.72
2022-11-05T05:38:51.501Z,11.68
2022-11-05T05:41:26.391Z,11.65
2022-11-05T05:43:59.314Z,11.65
2022-11-05T05:46:31.992Z,11.63
2022-11-05T05:49:09.576Z,11.63
2022-11-05T05:51:45.025Z,11.70
2022-11-05T05:54:18.109Z,11.66
2022-11-05T05:56:52.688Z,11.64
2022-11-05T05:59:25.411Z,11.65
2022-11-05T06:01:58.327Z,11.63
2022-11-05T06:04:30.981Z,11.65
2022-11-05T06:07:03.743Z,11.64
2022-11-05T06:09:36.694Z,11.66
2022-11-05T06:12:10.818Z,11.67
2022-11-05T06:14:43.643Z,11.67
2022-11-05T06:17:16.949Z,11.65
2022-11-05T06:19:49.780Z,11.60
2022-11-05T06:22:22.471Z,11.57
2022-11-05T06:24:55.167Z,11.66
2022-11-05T06:27:30.433Z,11.63
2022-11-05T06:30:03.943Z,11.61
2022-11-05T06:32:36.629Z,11.59
2022-11-05T06:35:09.869Z,11.58
2022-11-05T06:37:43.124Z,11.58
2022-11-05T06:40:16.371Z,11.51
2022-11-05T06:42:54.235Z,11.51
2022-11-05T06:45:26.957Z,11.47
2022-11-05T06:48:00.739Z,11.51
2022-11-05T06:50:33.609Z,11.53
2022-11-05T06:53:06.340Z,11.50
2022-11-05T06:55:39.195Z,11.46
2022-11-05T06:58:13.202Z,11.48
2022-11-05T07:00:46.100Z,11.46
2022-11-05T07:03:18.773Z,11.50
2022-11-05T07:05:52.061Z,11.48
2022-11-05T07:08:24.879Z,11.49
2022-11-05T07:10:57.564Z,11.47
2022-11-05T07:13:31.694Z,11.49
2022-11-05T07:16:04.599Z,11.50
2022-11-05T07:18:37.362Z,11.55
2022-11-05T07:21:10.262Z,11.57
2022-11-05T07:23:42.863Z,11.56
2022-11-05T07:26:15.593Z,11.59
2022-11-05T07:28:49.875Z,11.67
2022-11-05T07:31:23.230Z,11.60
2022-11-05T07:33:55.912Z,11.63
2022-11-05T07:36:28.628Z,11.63
2022-11-05T07:39:01.353Z,11.63
2022-11-05T07:41:34.630Z,11.66
2022-11-05T07:44:08.940Z,11.68
2022-11-05T07:46:42.100Z,11.72
2022-11-05T07:49:14.906Z,11.75
2022-11-05T07:51:47.688Z,11.78
2022-11-05T07:54:20.388Z,11.79
2022-11-05T07:56:53.337Z,11.82
2022-11-05T07:59:30.296Z,11.83
2022-11-05T08:02:04.549Z,11.80
2022-11-05T08:04:37.415Z,11.80
2022-11-05T08:07:10.331Z,11.79
2022-11-05T08:09:42.965Z,11.91
2022-11-05T08:12:15.748Z,11.86
2022-11-05T08:14:50.690Z,11.83
2022-11-05T08:17:23.419Z,11.85
2022-11-05T08:19:57.524Z,11.86
2022-11-05T08:22:30.178Z,11.88
2022-11-05T08:25:06.781Z,11.98
2022-11-05T08:27:40.596Z,11.98
2022-11-05T08:30:15.019Z,11.97
2022-11-05T08:32:47.788Z,11.96
2022-11-05T08:35:22.867Z,12.03
2022-11-05T08:37:58.514Z,12.07
2022-11-05T08:40:35.286Z,12.09
2022-11-05T08:43:09.917Z,12.11
2022-11-05T08:45:44.806Z,12.20
2022-11-05T08:48:21.280Z,12.21
2022-11-05T08:50:54.174Z,12.30
2022-11-05T08:53:26.887Z,12.28
2022-11-05T08:56:00.674Z,12.33
2022-11-05T08:58:33.620Z,12.25
2022-11-05T09:01:07.699Z,12.28
2022-11-05T09:03:40.447Z,12.33
2022-11-05T09:06:13.253Z,12.36
2022-11-05T09:08:46.044Z,12.34
2022-11-05T09:11:19.353Z,12.41
2022-11-05T09:13:52.466Z,12.39
2022-11-05T09:16:34.328Z,12.40
2022-11-05T09:19:07.020Z,12.41
2022-11-05T09:21:39.682Z,12.45
2022-11-05T09:24:12.332Z,12.49
2022-11-05T09:26:45.181Z,12.52
2022-11-05T09:29:18.061Z,12.57
2022-11-05T09:31:52.233Z,12.57
2022-11-05T09:34:24.879Z,12.58
2022-11-05T09:36:58.288Z,12.64
2022-11-05T09:39:31.438Z,12.69
2022-11-05T09:42:09.025Z,12.77
2022-11-05T09:44:44.783Z,12.71
2022-11-05T09:47:24.189Z,12.78
2022-11-05T09:49:59.396Z,12.82
2022-11-05T09:52:37.089Z,12.82
2022-11-05T09:55:21.978Z,12.89
2022-11-05T09:57:59.458Z,12.91
2022-11-05T10:00:33.681Z,13.02
2022-11-05T10:03:14.832Z,13.23
2022-11-05T10:05:49.461Z,13.26
2022-11-05T10:08:26.339Z,13.27
2022-11-05T10:11:04.797Z,13.32
2022-11-05T10:13:43.349Z,13.42
2022-11-05T10:16:24.770Z,13.44
2022-11-05T10:19:04.133Z,13.40
2022-11-05T10:22:05.094Z,13.59
2022-11-05T10:24:31.414Z,13.57
2022-11-05T10:27:04.217Z,13.76
2022-11-05T10:29:37.637Z,13.79
2022-11-05T10:32:14.644Z,13.86
2022-11-05T10:34:48.782Z,13.95
2022-11-05T10:37:24.320Z,13.94
2022-11-05T10:39:57.372Z,14.04
2022-11-05T10:42:37.561Z,14.14
2022-11-05T10:45:24.420Z,14.15
2022-11-05T10:48:14.231Z,14.23
2022-11-05T10:50:48.855Z,14.27
2022-11-05T10:53:27.044Z,14.19
2022-11-05T10:55:59.853Z,14.32
2022-11-05T10:58:35.805Z,14.38
2022-11-05T11:01:13.419Z,14.33
2022-11-05T11:03:47.893Z,14.34
2022-11-05T11:06:28.500Z,14.38
2022-11-05T11:09:04.172Z,14.33
2022-11-05T11:11:40.481Z,14.42
2022-11-05T11:14:22.215Z,14.47
2022-11-05T11:16:57.400Z,14.46
2022-11-05T11:19:32.018Z,14.41
2022-11-05T11:22:21.481Z,14.46
2022-11-05T11:24:54.786Z,14.45
2022-11-05T11:27:30.489Z,14.53
2022-11-05T11:30:07.534Z,14.47
2022-11-05T11:32:41.241Z,14.52
2022-11-05T11:35:22.548Z,14.56
2022-11-05T11:38:02.430Z,14.59
2022-11-05T11:40:38.126Z,14.49
2022-11-05T11:43:22.258Z,14.53
2022-11-05T11:46:03.808Z,14.58
2022-11-05T11:48:41.855Z,14.57
2022-11-05T11:51:21.270Z,14.58
2022-11-05T11:53:58.159Z,14.24
2022-11-05T11:56:36.637Z,14.05
2022-11-05T11:59:27.275Z,14.06
2022-11-05T12:02:31.518Z,14.24
2022-11-05T12:05:27.237Z,14.38
2022-11-05T12:08:09.505Z,14.55
2022-11-05T12:10:55.808Z,14.58
2022-11-05T12:13:56.789Z,14.63
2022-11-05T12:16:47.866Z,14.62
2022-11-05T12:19:32.851Z,14.67
2022-11-05T12:22:19.535Z,14.73
2022-11-05T12:25:26.139Z,14.71
2022-11-05T12:28:14.683Z,14.73
2022-11-05T12:30:57.119Z,14.76
2022-11-05T12:33:59.025Z,14.72
2022-11-05T12:36:44.002Z,14.73
2022-11-05T12:39:44.032Z,14.68
2022-11-05T12:42:30.076Z,14.72
2022-11-05T12:45:16.391Z,14.72
2022-11-05T12:48:01.353Z,14.70
2022-11-05T12:50:41.377Z,14.60
2022-11-05T12:53:33.313Z,14.60
2022-11-05T12:56:13.637Z,14.57
2022-11-05T14:43:49.622Z,14.40
2022-11-05T14:46:42.256Z,14.42
2022-11-05T14:49:20.806Z,14.32
2022-11-05T14:51:55.931Z,14.29
2022-11-05T14:54:36.170Z,14.22
2022-11-05T14:57:13.448Z,14.32
2022-11-05T15:00:01.077Z,14.35
2022-11-05T15:02:38.304Z,14.36
2022-11-05T15:05:40.488Z,14.30
2022-11-05T15:08:37.362Z,14.35
2022-11-05T15:11:15.978Z,14.44
2022-11-05T15:13:59.419Z,14.36
2022-11-05T15:16:37.931Z,14.32
2022-11-05T15:19:18.781Z,14.33
2022-11-05T15:21:54.218Z,14.26
2022-11-05T15:24:29.186Z,14.18
2022-11-05T15:27:09.301Z,14.18
2022-11-05T15:29:43.039Z,14.21
2022-11-05T15:32:19.620Z,14.08
2022-11-05T15:34:56.569Z,14.17
2022-11-05T15:37:29.471Z,14.12
2022-11-05T15:40:04.735Z,14.14
2022-11-05T15:42:38.283Z,14.15
2022-11-05T15:45:23.238Z,14.04
2022-11-05T15:47:57.687Z,14.06
2022-11-05T15:50:30.676Z,14.09
2022-11-05T15:53:37.534Z,14.07
2022-11-05T15:56:14.637Z,14.04
2022-11-05T15:58:50.498Z,13.97
2022-11-05T16:01:28.087Z,13.99
2022-11-05T16:04:15.695Z,13.99
2022-11-05T16:06:50.860Z,14.01
2022-11-05T16:09:27.523Z,14.05
2022-11-05T16:12:13.484Z,13.90
2022-11-05T16:14:58.160Z,14.01
2022-11-05T16:17:46.655Z,14.03
2022-11-05T16:20:28.495Z,13.92
2022-11-05T16:23:04.632Z,13.96
2022-11-05T16:25:41.398Z,13.94
2022-11-05T16:28:24.606Z,13.91
2022-11-05T16:30:59.487Z,13.86
2022-11-05T16:33:35.139Z,13.79
2022-11-05T16:36:10.580Z,13.94
2022-11-05T16:38:43.691Z,13.86
2022-11-05T16:41:28.941Z,13.82
2022-11-05T16:44:03.104Z,13.75
2022-11-05T16:46:38.125Z,13.72
2022-11-05T16:49:12.544Z,13.75
2022-11-05T16:51:47.292Z,13.75
2022-11-05T16:54:20.311Z,13.80
2022-11-05T16:56:53.139Z,13.85
2022-11-05T16:59:29.900Z,13.79
2022-11-05T17:02:03.527Z,13.73
2022-11-05T17:04:36.380Z,13.76
2022-11-05T17:07:10.558Z,13.73
2022-11-05T17:09:43.523Z,13.71
2022-11-05T17:12:17.402Z,13.74
2022-11-05T17:14:50.360Z,13.77
2022-11-05T17:17:23.304Z,13.84
2022-11-05T17:19:56.141Z,13.86
2022-11-05T17:22:30.573Z,13.84
2022-11-05T17:25:06.913Z,13.74
2022-11-05T17:27:40.204Z,13.77
2022-11-05T17:30:14.357Z,13.77
2022-11-05T17:32:50.384Z,13.74
2022-11-05T17:35:23.747Z,13.81
2022-11-05T17:38:07.885Z,13.73
2022-11-05T17:40:41.213Z,13.78
2022-11-05T17:43:15.289Z,13.75
2022-11-05T17:45:52.058Z,13.79
2022-11-05T17:48:24.867Z,13.78
2022-11-05T17:50:57.675Z,13.77
2022-11-05T17:53:32.643Z,13.70
2022-11-05T17:56:09.697Z,13.73
2022-11-05T17:58:43.153Z,13.82
2022-11-05T18:01:28.119Z,13.81
2022-11-05T18:04:07.146Z,13.78
2022-11-05T18:06:42.319Z,13.79
2022-11-05T18:09:19.186Z,13.75
2022-11-05T18:11:52.146Z,13.69
2022-11-05T18:14:26.995Z,13.62
2022-11-05T18:17:00.387Z,13.70
2022-11-05T18:19:37.369Z,13.73
2022-11-05T18:22:10.894Z,13.80
2022-11-05T18:24:46.058Z,13.73
2022-11-05T18:27:27.835Z,13.72
2022-11-05T18:30:02.253Z,13.69
2022-11-05T18:32:38.782Z,13.67
2022-11-05T18:35:14.724Z,13.64
2022-11-05T18:37:47.955Z,13.61
2022-11-05T18:40:22.511Z,13.61
2022-11-05T18:42:59.491Z,13.74
2022-11-05T18:45:41.229Z,13.62
2022-11-05T18:48:16.530Z,13.60
2022-11-05T18:51:17.909Z,13.57
2022-11-05T18:53:51.010Z,13.61
2022-11-05T18:56:25.494Z,13.62
2022-11-05T18:59:22.367Z,13.59
2022-11-05T19:01:53.407Z,13.59
2022-11-05T19:04:30.782Z,13.54
2022-11-05T19:07:05.326Z,13.58
2022-11-05T19:09:40.557Z,13.59
2022-11-05T19:12:15.376Z,13.55
2022-11-05T19:14:48.886Z,13.51
2022-11-05T19:17:22.638Z,13.51
2022-11-05T19:20:02.805Z,13.42
2022-11-05T19:22:36.185Z,13.46
2022-11-05T19:25:09.994Z,13.52
2022-11-05T19:27:58.324Z,13.39
2022-11-05T19:30:32.154Z,13.44
2022-11-05T19:33:05.869Z,13.39
2022-11-05T19:35:42.273Z,13.40
2022-11-05T19:38:17.468Z,13.39
2022-11-05T19:40:54.117Z,13.44
2022-11-05T19:43:29.363Z,13.40
2022-11-05T19:46:02.458Z,13.41
2022-11-05T19:48:40.944Z,13.45
2022-11-05T19:51:19.293Z,13.40
2022-11-05T19:53:53.553Z,13.29
2022-11-05T19:56:29.937Z,13.36
2022-11-05T19:59:05.380Z,13.32
2022-11-05T20:01:38.724Z,13.36
2022-11-05T20:04:13.197Z,13.50
2022-11-05T20:06:46.705Z,13.38
2022-11-05T20:09:22.654Z,13.31
2022-11-05T20:11:57.384Z,13.26
2022-11-05T20:14:32.370Z,13.31
2022-11-05T20:17:05.748Z,13.39
2022-11-05T20:19:40.090Z,13.31
2022-11-05T20:22:13.534Z,13.32
2022-11-05T20:24:47.078Z,13.35
2022-11-05T20:27:20.605Z,13.32
2022-11-05T20:29:55.422Z,13.37
2022-11-05T20:32:29.052Z,13.30
2022-11-05T20:35:04.998Z,13.40
2022-11-05T20:37:38.354Z,13.34
2022-11-05T20:40:14.204Z,13.38
2022-11-05T20:42:49.681Z,13.39
2022-11-05T20:45:24.485Z,13.44
2022-11-05T20:47:58.775Z,13.40
2022-11-05T20:50:33.777Z,13.37
2022-11-05T20:53:08.302Z,13.44
2022-11-05T20:55:46.003Z,13.28
2022-11-05T20:58:19.445Z,13.34
2022-11-05T21:01:04.287Z,13.34
2022-11-05T21:03:37.745Z,13.48
2022-11-05T21:06:11.552Z,13.49
2022-11-05T21:08:47.826Z,13.44
2022-11-05T21:11:25.559Z,13.42
2022-11-05T21:13:58.799Z,13.47
2022-11-05T21:16:36.825Z,13.45
2022-11-05T21:19:10.147Z,13.44
2022-11-05T21:21:44.981Z,13.44
2022-11-05T21:24:18.496Z,13.50
2022-11-05T21:26:52.103Z,13.55
2022-11-05T21:29:25.911Z,13.45
2022-11-05T21:32:05.703Z,13.50
2022-11-05T21:34:38.985Z,13.49
2022-11-05T21:37:17.501Z,13.42
2022-11-05T21:39:58.928Z,13.57
2022-11-05T21:42:39.639Z,13.49
2022-11-05T21:45:16.384Z,13.47
2022-11-05T21:47:52.764Z,13.33
2022-11-05T21:50:46.376Z,13.43
2022-11-05T21:53:37.536Z,13.20
2022-11-05T21:56:35.981Z,13.21
2022-11-05T21:59:30.193Z,13.23
2022-11-05T22:02:05.724Z,13.20
2022-11-05T22:04:42.093Z,13.31
2022-11-05T22:07:18.404Z,13.33
2022-11-05T22:09:52.470Z,13.23
2022-11-05T22:12:28.556Z,13.33
2022-11-05T22:15:01.956Z,13.28
2022-11-05T22:17:40.394Z,13.46
2022-11-05T22:20:18.063Z,13.31
2022-11-05T22:22:51.064Z,13.38
2022-11-05T22:25:24.192Z,13.41
2022-11-05T22:27:57.830Z,13.39
2022-11-05T22:30:34.655Z,13.39
2022-11-05T22:33:10.929Z,13.44
2022-11-05T22:35:45.367Z,13.26
2022-11-05T22:38:18.907Z,13.45
2022-11-05T22:40:52.337Z,13.47
2022-11-05T22:43:25.548Z,13.36
2022-11-05T22:46:05.941Z,13.41
2022-11-05T22:48:40.802Z,13.32
2022-11-05T22:51:19.912Z,13.28
2022-11-05T22:53:57.933Z,13.37
2022-11-05T22:56:36.477Z,13.47
2022-11-05T22:59:14.002Z,13.51
2022-11-05T23:01:53.201Z,13.46
2022-11-05T23:04:29.439Z,13.53
2022-11-05T23:07:27.635Z,13.40
2022-11-05T23:10:20.094Z,13.47
2022-11-05T23:12:56.140Z,13.50
2022-11-05T23:15:49.595Z,13.47
2022-11-05T23:18:40.802Z,13.45
2022-11-05T23:21:34.326Z,13.51
2022-11-05T23:24:12.873Z,13.47
2022-11-05T23:26:52.404Z,13.53
2022-11-05T23:29:30.488Z,13.39
2022-11-05T23:32:21.296Z,13.35
2022-11-05T23:34:55.986Z,13.45
2022-11-05T23:37:47.939Z,13.45
2022-11-05T23:40:29.063Z,13.36
2022-11-05T23:43:27.029Z,13.38
2022-11-05T23:46:26.300Z,13.46
2022-11-05T23:48:59.729Z,13.53
2022-11-05T23:51:39.268Z,13.38
2022-11-05T23:54:17.244Z,13.47
2022-11-05T23:56:52.750Z,13.49
2022-11-05T23:59:25.672Z,13.43
